Corzuela, Argentina
Current Conditions -  °F | °C
As of 10:00 AM on Saturday 25 Oct 2014 (Local Time) from SARE Reporting Station
Clear Clear  
Wind Chill: 86°   Ceiling: Unl
Heat Index: 88°   Visibility: 5mi
Dew Point: 66°   Wind: 3mph
Humidity: 51%   Direction: 140°SE
Pressure: 29.88"   Gusts: NA
Location:  26.95°S, 60.97°W
Report Text: SARE 251300Z 14003KT 8000 NSC 30/19 Q1012
Loading
Personal Weather Stations






























Interactive Weather Map
Tropical Storm Tracking
New forecast layout! Learn more

10-Day Weather Forecast

Advertisements
Track Severe Weather on mobile